createdAt,value
2023-04-18T00:01:00.411Z,27.00
2023-04-18T00:03:30.095Z,29.00
2023-04-18T00:05:59.597Z,35.33
2023-04-18T00:08:28.498Z,31.00
2023-04-18T00:10:57.620Z,34.33
2023-04-18T00:13:28.523Z,25.00
2023-04-18T00:15:56.831Z,28.00
2023-04-18T00:18:26.777Z,34.00
2023-04-18T00:20:54.971Z,29.50
2023-04-18T00:23:23.504Z,28.33
2023-04-18T00:25:52.026Z,38.67
2023-04-18T00:28:20.763Z,29.67
2023-04-18T00:30:50.589Z,29.33
2023-04-18T00:33:19.302Z,29.67
2023-04-18T00:35:48.298Z,34.33
2023-04-18T00:38:16.899Z,30.00
2023-04-18T00:40:45.511Z,39.00
2023-04-18T00:43:14.843Z,34.00
2023-04-18T00:45:44.273Z,30.67
2023-04-18T00:48:12.862Z,27.67
2023-04-18T00:50:41.747Z,24.50
2023-04-18T00:53:11.354Z,32.00
2023-04-18T00:55:40.013Z,21.67
2023-04-18T00:58:08.226Z,23.00
2023-04-18T01:00:36.285Z,28.00
2023-04-18T01:03:04.998Z,36.33
2023-04-18T01:05:32.876Z,27.50
2023-04-18T01:08:01.446Z,29.00
2023-04-18T01:10:31.251Z,30.00
2023-04-18T01:13:15.454Z,35.00
2023-04-18T01:15:47.020Z,38.00
2023-04-18T01:18:18.320Z,34.00
2023-04-18T01:20:48.334Z,33.00
2023-04-18T01:23:18.550Z,34.67
2023-04-18T01:25:49.445Z,36.33
2023-04-18T01:28:19.672Z,34.00
2023-04-18T01:30:48.304Z,40.67
2023-04-18T01:33:16.948Z,37.67
2023-04-18T01:35:44.876Z,38.50
2023-04-18T01:38:12.690Z,29.00
2023-04-18T01:40:40.432Z,34.00
2023-04-18T01:43:08.410Z,34.50
2023-04-18T01:45:36.324Z,22.50
2023-04-18T01:48:04.389Z,18.67
2023-04-18T01:50:31.932Z,27.00
2023-04-18T01:52:59.764Z,26.67
2023-04-18T01:55:26.714Z,27.00
2023-04-18T01:57:54.444Z,27.00
2023-04-18T02:00:21.773Z,16.00
2023-04-18T02:02:50.602Z,24.33
2023-04-18T02:05:17.817Z,20.00
2023-04-18T02:07:45.683Z,29.50
2023-04-18T02:10:16.212Z,29.29
2023-04-18T02:12:44.083Z,28.33
2023-04-18T02:15:11.617Z,27.00
2023-04-18T02:17:38.542Z,22.00
2023-04-18T02:20:09.396Z,26.67
2023-04-18T02:22:40.838Z,21.50
2023-04-18T02:25:08.986Z,22.67
2023-04-18T02:27:37.031Z,23.33
2023-04-18T02:30:04.389Z,23.00
2023-04-18T02:32:31.402Z,23.50
2023-04-18T02:34:58.483Z,18.50
2023-04-18T02:37:26.258Z,19.33
2023-04-18T02:39:53.507Z,22.00
2023-04-18T02:42:24.150Z,21.67
2023-04-18T02:44:50.991Z,25.50
2023-04-18T02:47:18.714Z,29.67
2023-04-18T02:49:46.543Z,17.00
2023-04-18T02:52:13.434Z,22.00
2023-04-18T02:54:41.205Z,20.33
2023-04-18T02:57:08.030Z,18.50
2023-04-18T02:59:37.534Z,16.33
2023-04-18T03:02:05.243Z,23.00
2023-04-18T03:04:34.467Z,19.00
2023-04-18T03:07:01.496Z,14.00
2023-04-18T03:09:30.244Z,14.80
2023-04-18T03:11:59.144Z,15.20
2023-04-18T03:14:26.911Z,15.33
2023-04-18T03:16:55.339Z,13.00
2023-04-18T03:19:23.437Z,14.00
2023-04-18T03:21:51.214Z,12.33
2023-04-18T03:24:18.012Z,13.50
2023-04-18T03:26:46.685Z,12.00
2023-04-18T03:29:15.433Z,12.20
2023-04-18T03:31:42.561Z,11.00
2023-04-18T03:34:12.967Z,16.83
2023-04-18T03:36:42.735Z,19.17
2023-04-18T03:39:16.153Z,14.33
2023-04-18T03:41:45.257Z,11.00
2023-04-18T03:44:13.240Z,12.00
2023-04-18T03:46:41.441Z,12.00
2023-04-18T03:49:08.590Z,10.50
2023-04-18T03:51:43.724Z,11.33
2023-04-18T03:54:10.982Z,11.50
2023-04-18T03:56:38.166Z,14.00
2023-04-18T03:59:05.021Z,11.00
2023-04-18T04:01:35.692Z,10.00
2023-04-18T04:04:04.926Z,8.00
2023-04-18T04:06:33.763Z,9.40
2023-04-18T04:09:01.161Z,8.00
2023-04-18T04:11:27.926Z,7.00
2023-04-18T04:13:55.597Z,7.00
2023-04-18T04:16:22.628Z,10.00
2023-04-18T04:18:49.514Z,10.00
2023-04-18T04:21:16.656Z,10.00
2023-04-18T04:23:43.816Z,12.00
2023-04-18T04:26:12.723Z,9.00
2023-04-18T04:28:40.927Z,5.00
2023-04-18T04:31:11.130Z,5.50
2023-04-18T04:33:39.229Z,9.50
2023-04-18T04:36:07.919Z,9.75
2023-04-18T04:38:38.473Z,8.50
2023-04-18T04:41:09.528Z,8.50
2023-04-18T04:43:36.609Z,7.00
2023-04-18T04:46:04.876Z,6.25
2023-04-18T04:48:32.902Z,11.75
2023-04-18T04:51:01.349Z,12.75
2023-04-18T04:53:32.747Z,10.00
2023-04-18T04:55:59.610Z,12.50
2023-04-18T04:58:27.827Z,7.75
2023-04-18T05:00:55.066Z,10.50
2023-04-18T05:03:23.350Z,9.50
2023-04-18T05:05:50.314Z,9.00
2023-04-18T05:08:18.030Z,10.00
2023-04-18T05:10:46.114Z,10.00
2023-04-18T05:13:13.081Z,12.00
2023-04-18T05:15:40.420Z,14.00
2023-04-18T05:18:07.472Z,14.00
2023-04-18T05:20:34.395Z,10.00
2023-04-18T05:23:02.283Z,6.75
2023-04-18T05:25:32.585Z,13.50
2023-04-18T05:28:05.021Z,11.67
2023-04-18T05:30:34.941Z,13.00
2023-04-18T05:33:03.933Z,14.20
2023-04-18T05:35:31.952Z,14.33
2023-04-18T05:37:59.765Z,18.00
2023-04-18T05:40:27.619Z,26.67
2023-04-18T05:42:55.441Z,19.33
2023-04-18T05:45:23.215Z,14.67
2023-04-18T05:47:54.047Z,11.20
2023-04-18T05:50:21.112Z,10.00
2023-04-18T05:52:47.908Z,12.00
2023-04-18T05:55:15.695Z,20.33
2023-04-18T05:57:43.449Z,16.00
2023-04-18T06:00:12.069Z,23.33
2023-04-18T06:02:39.240Z,15.00
2023-04-18T06:05:08.871Z,12.60
2023-04-18T06:07:36.749Z,12.00
2023-04-18T06:10:04.057Z,14.50
2023-04-18T06:12:33.905Z,10.00
2023-04-18T06:15:02.059Z,6.75
2023-04-18T06:17:28.927Z,6.00
2023-04-18T06:19:55.789Z,11.50
2023-04-18T06:22:23.496Z,6.25
2023-04-18T06:24:51.304Z,7.50
2023-04-18T06:27:30.491Z,5.00
2023-04-18T06:29:59.371Z,5.00
2023-04-18T06:32:27.247Z,6.25
2023-04-18T06:34:55.234Z,5.00
2023-04-18T06:37:23.582Z,6.25
2023-04-18T06:39:51.272Z,7.00
2023-04-18T06:42:21.565Z,7.25
2023-04-18T06:44:50.280Z,7.50
2023-04-18T06:47:18.076Z,7.25
2023-04-18T06:49:44.857Z,5.00
2023-04-18T06:52:11.724Z,11.00
2023-04-18T06:54:39.360Z,8.00
2023-04-18T06:57:06.193Z,8.00
2023-04-18T06:59:33.151Z,8.00
2023-04-18T07:02:01.937Z,13.40
2023-04-18T07:04:28.982Z,10.50
2023-04-18T07:06:56.105Z,11.00
2023-04-18T07:09:23.140Z,10.00
2023-04-18T07:11:52.575Z,10.00
2023-04-18T07:14:23.012Z,10.00
2023-04-18T07:16:49.984Z,13.50
2023-04-18T07:19:17.687Z,5.50
2023-04-18T07:21:46.382Z,10.50
2023-04-18T07:24:13.523Z,8.00
2023-04-18T07:26:41.305Z,5.50
2023-04-18T07:29:08.975Z,9.50
2023-04-18T07:34:23.140Z,11.00
2023-04-18T07:36:50.114Z,9.00
2023-04-18T07:39:23.118Z,12.00
2023-04-18T07:41:50.790Z,3.00
2023-04-18T07:44:21.461Z,3.00
2023-04-18T07:47:05.500Z,5.00
2023-04-18T07:49:33.536Z,6.00
2023-04-18T07:52:00.450Z,5.00
2023-04-18T07:54:28.272Z,4.00
2023-04-18T07:56:55.951Z,6.25
2023-04-18T07:59:22.851Z,5.50
2023-04-18T08:01:52.498Z,5.25
2023-04-18T08:04:20.502Z,7.50
2023-04-18T08:06:47.530Z,8.00
2023-04-18T08:09:15.675Z,7.75
2023-04-18T08:11:43.577Z,5.75
2023-04-18T08:14:11.836Z,6.50
2023-04-18T08:16:40.183Z,4.50
2023-04-18T08:19:07.863Z,3.50
2023-04-18T08:21:34.878Z,3.50
2023-04-18T08:24:01.619Z,7.00
2023-04-18T08:26:29.422Z,4.00
2023-04-18T08:28:56.144Z,3.00
2023-04-18T08:31:23.868Z,6.50
2023-04-18T08:33:50.773Z,4.00
2023-04-18T08:36:17.706Z,4.00
2023-04-18T08:38:44.570Z,7.00
2023-04-18T08:41:12.371Z,5.00
2023-04-18T08:43:42.184Z,6.75
2023-04-18T08:46:09.399Z,6.00
2023-04-18T08:48:37.080Z,7.75
2023-04-18T08:51:05.147Z,6.00
2023-04-18T08:53:34.506Z,4.00
2023-04-18T08:56:01.631Z,6.00
2023-04-18T08:58:32.573Z,2.00
2023-04-18T09:00:59.586Z,9.00
2023-04-18T09:03:44.313Z,1.75
2023-04-18T09:06:19.147Z,2.00
2023-04-18T09:09:13.592Z,3.00
2023-04-18T09:11:42.526Z,10.00
2023-04-18T09:14:24.009Z,2.00
2023-04-18T09:16:52.138Z,5.00
2023-04-18T09:19:23.963Z,4.75
2023-04-18T09:21:59.037Z,2.00
2023-04-18T09:24:30.607Z,3.50
2023-04-18T09:26:59.939Z,6.00
2023-04-18T09:29:49.376Z,5.00
2023-04-18T09:32:30.772Z,1.00
2023-04-18T09:35:04.929Z,2.00
2023-04-18T09:37:31.962Z,6.00
2023-04-18T09:39:59.078Z,2.00
2023-04-18T09:42:28.778Z,2.50
2023-04-18T09:45:04.863Z,3.00
2023-04-18T09:47:35.481Z,3.25
2023-04-18T09:50:04.765Z,2.00
2023-04-18T09:52:36.175Z,3.25
2023-04-18T09:55:08.323Z,3.00
2023-04-18T09:57:37.396Z,3.00
2023-04-18T10:00:24.789Z,3.75
2023-04-18T10:03:06.324Z,3.00
2023-04-18T10:05:36.105Z,8.00
2023-04-18T10:08:04.027Z,5.00
2023-04-18T10:10:31.001Z,4.00
2023-04-18T10:13:00.275Z,2.25
2023-04-18T10:15:29.802Z,3.75
2023-04-18T10:18:05.372Z,3.00
2023-04-18T10:20:35.771Z,2.00
2023-04-18T10:23:35.121Z,6.50
2023-04-18T10:26:06.941Z,3.50
2023-04-18T10:28:56.733Z,3.75
2023-04-18T10:31:28.137Z,5.00
2023-04-18T10:36:30.250Z,7.25
2023-04-18T10:39:21.721Z,6.50
2023-04-18T10:41:51.114Z,2.75
2023-04-18T10:44:23.385Z,4.50
2023-04-18T10:46:53.341Z,11.00
2023-04-18T10:49:22.782Z,7.00
2023-04-18T10:51:58.827Z,9.50
2023-04-18T10:54:44.197Z,13.00
2023-04-18T10:57:12.293Z,6.00
2023-04-18T10:59:48.277Z,10.20
2023-04-18T11:02:32.571Z,7.00
2023-04-18T11:05:07.269Z,10.00
2023-04-18T11:07:37.063Z,8.00
2023-04-18T11:10:07.659Z,16.40
2023-04-18T11:12:39.882Z,12.00
2023-04-18T11:15:14.560Z,11.80
2023-04-18T11:17:42.272Z,15.33
2023-04-18T11:20:14.201Z,12.00
2023-04-18T11:22:52.088Z,15.67
2023-04-18T11:25:22.367Z,11.00
2023-04-18T11:27:57.031Z,12.00
2023-04-18T11:30:24.423Z,14.00
2023-04-18T11:32:52.098Z,11.00
2023-04-18T11:35:19.920Z,11.50
2023-04-18T11:37:47.367Z,9.00
2023-04-18T11:40:15.013Z,12.67
2023-04-18T11:42:43.007Z,22.00
2023-04-18T11:45:15.040Z,18.00
2023-04-18T11:47:43.719Z,18.00
2023-04-18T11:50:14.004Z,13.00
2023-04-18T11:52:42.668Z,13.67
2023-04-18T11:55:18.752Z,14.00
2023-04-18T11:57:56.593Z,8.00
2023-04-18T12:00:37.851Z,15.00
2023-04-18T12:03:13.385Z,9.00
2023-04-18T12:05:45.322Z,23.33
2023-04-18T12:08:18.379Z,14.67
2023-04-18T12:10:47.161Z,14.33
2023-04-18T12:13:15.292Z,12.33
2023-04-18T12:15:46.834Z,13.20
2023-04-18T12:18:15.447Z,9.00
2023-04-18T12:20:55.588Z,7.75
2023-04-18T12:23:36.494Z,12.80
2023-04-18T12:26:04.369Z,8.50
2023-04-18T12:28:35.310Z,8.00
2023-04-18T12:31:02.974Z,12.00
2023-04-18T12:33:30.739Z,12.75
2023-04-18T12:35:57.773Z,15.00
2023-04-18T12:38:27.251Z,12.20
2023-04-18T12:40:56.286Z,9.50
2023-04-18T12:43:23.916Z,13.00
2023-04-18T12:45:51.904Z,14.33
2023-04-18T12:48:19.623Z,13.00
2023-04-18T12:50:49.303Z,16.33
2023-04-18T12:53:17.334Z,15.67
2023-04-18T12:55:46.538Z,16.20
2023-04-18T12:58:19.394Z,25.00
2023-04-18T13:00:46.626Z,19.00
2023-04-18T13:03:14.779Z,27.50
2023-04-18T13:05:43.545Z,23.33
2023-04-18T13:08:17.037Z,21.50
2023-04-18T13:10:47.959Z,26.00
2023-04-18T13:13:16.187Z,22.00
2023-04-18T13:15:43.774Z,23.00
2023-04-18T13:18:12.530Z,26.33
2023-04-18T13:20:40.454Z,29.50
2023-04-18T13:23:09.056Z,26.00
2023-04-18T13:25:36.994Z,30.50
2023-04-18T13:28:04.395Z,20.00
2023-04-18T13:30:32.368Z,25.67
2023-04-18T13:33:00.487Z,26.00
2023-04-18T13:35:29.436Z,23.33
2023-04-18T13:38:03.097Z,23.00
2023-04-18T13:40:30.912Z,22.00
2023-04-18T13:42:58.010Z,21.50
2023-04-18T13:45:27.004Z,25.33
2023-04-18T13:47:55.686Z,25.33
2023-04-18T13:50:23.853Z,30.50
2023-04-18T13:52:54.875Z,23.00
2023-04-18T13:55:22.039Z,26.00
2023-04-18T13:57:49.082Z,19.50
2023-04-18T14:00:17.065Z,24.00
2023-04-18T14:02:45.384Z,20.33
2023-04-18T14:05:12.612Z,21.00
2023-04-18T14:07:41.580Z,13.80
2023-04-18T14:10:09.835Z,18.33
2023-04-18T14:12:37.752Z,17.00
2023-04-18T14:15:05.304Z,13.00
2023-04-18T14:17:33.051Z,16.00
2023-04-18T14:20:01.751Z,22.00
2023-04-18T14:22:29.472Z,20.00
2023-04-18T14:24:57.503Z,18.00
2023-04-18T14:27:26.302Z,18.00
2023-04-18T14:29:53.325Z,18.00
2023-04-18T14:32:21.091Z,12.00
2023-04-18T14:34:50.904Z,14.00
2023-04-18T14:37:17.966Z,13.00
2023-04-18T14:39:48.593Z,17.67
2023-04-18T14:42:17.466Z,13.00
2023-04-18T14:44:44.428Z,21.50
2023-04-18T14:47:12.271Z,19.00
2023-04-18T14:49:39.477Z,16.00
2023-04-18T14:52:06.912Z,12.50
2023-04-18T14:54:36.739Z,13.80
2023-04-18T14:57:04.963Z,18.67
2023-04-18T14:59:33.762Z,12.40
2023-04-18T15:02:02.719Z,15.40
2023-04-18T15:04:30.529Z,19.00
2023-04-18T15:06:57.417Z,20.00
2023-04-18T15:09:25.101Z,14.67
2023-04-18T15:11:52.242Z,25.00
2023-04-18T15:14:20.307Z,25.00
2023-04-18T15:16:49.879Z,1.00
2023-04-18T15:19:19.117Z,11.60
2023-04-18T15:21:46.026Z,10.00
2023-04-18T15:24:13.175Z,10.00
2023-04-18T15:26:41.131Z,10.00
2023-04-18T15:29:08.375Z,12.50
2023-04-18T15:31:36.216Z,7.00
2023-04-18T15:34:05.161Z,13.00
2023-04-18T15:36:34.301Z,12.00
2023-04-18T15:39:08.800Z,13.40
2023-04-18T15:41:39.988Z,13.00
2023-04-18T15:44:09.158Z,11.40
2023-04-18T15:46:36.985Z,12.00
2023-04-18T15:49:07.459Z,11.50
2023-04-18T15:51:34.847Z,12.50
2023-04-18T15:54:01.777Z,10.50
2023-04-18T15:56:29.375Z,9.00
2023-04-18T15:58:58.204Z,8.50
2023-04-18T16:01:27.082Z,9.75
2023-04-18T16:03:57.009Z,8.00
2023-04-18T16:06:24.425Z,12.00
2023-04-18T16:08:51.622Z,7.50
2023-04-18T16:11:21.610Z,13.00
2023-04-18T16:13:49.052Z,14.00
2023-04-18T16:16:17.863Z,17.40
2023-04-18T16:18:44.886Z,8.50
2023-04-18T16:21:16.119Z,15.00
2023-04-18T16:23:44.097Z,12.00
2023-04-18T16:26:15.201Z,11.40
2023-04-18T16:28:44.061Z,13.60
2023-04-18T16:31:11.142Z,8.50
2023-04-18T16:33:40.592Z,9.50
2023-04-18T16:36:07.515Z,12.00
2023-04-18T16:38:35.619Z,16.67
2023-04-18T16:41:03.860Z,15.67
2023-04-18T16:43:31.569Z,13.00
2023-04-18T16:46:01.679Z,16.67
2023-04-18T16:48:29.826Z,13.33
2023-04-18T16:50:58.114Z,16.00
2023-04-18T16:53:26.975Z,14.20
2023-04-18T16:55:54.954Z,9.00
2023-04-18T16:58:23.824Z,11.67
2023-04-18T17:00:53.454Z,14.00
2023-04-18T17:03:21.280Z,17.67
2023-04-18T17:05:56.208Z,16.00
2023-04-18T17:08:24.369Z,13.00
2023-04-18T17:10:53.308Z,20.33
2023-04-18T17:13:27.199Z,20.67
2023-04-18T17:15:59.746Z,11.40
2023-04-18T17:18:31.895Z,16.83
2023-04-18T17:20:59.805Z,20.00
2023-04-18T17:23:26.905Z,26.00
2023-04-18T17:25:59.021Z,25.50
2023-04-18T17:28:29.998Z,24.33
2023-04-18T17:30:58.738Z,21.50
2023-04-18T17:33:26.513Z,27.50
2023-04-18T17:35:55.156Z,34.33
2023-04-18T17:38:22.062Z,26.00
2023-04-18T17:41:01.347Z,33.00
2023-04-18T17:43:28.594Z,33.00
2023-04-18T17:46:00.116Z,30.50
2023-04-18T17:48:28.223Z,32.00
2023-04-18T17:50:57.864Z,32.00
2023-04-18T17:53:27.094Z,35.00
2023-04-18T17:55:59.056Z,31.50
2023-04-18T17:58:28.634Z,36.00
2023-04-18T18:00:56.903Z,38.67
2023-04-18T18:03:26.067Z,40.33
2023-04-18T18:05:59.046Z,37.33
2023-04-18T18:08:27.641Z,41.33
2023-04-18T18:10:56.625Z,49.33
2023-04-18T18:13:25.399Z,47.33
2023-04-18T18:15:54.086Z,50.00
2023-04-18T18:18:33.555Z,49.50
2023-04-18T18:21:02.323Z,51.67
2023-04-18T18:23:31.730Z,53.67
2023-04-18T18:26:04.173Z,69.67
2023-04-18T18:28:32.206Z,59.50
2023-04-18T18:31:02.726Z,70.33
2023-04-18T18:33:31.387Z,79.33
2023-04-18T18:36:00.176Z,70.67
2023-04-18T18:38:31.485Z,80.00
2023-04-18T18:41:02.308Z,74.00
2023-04-18T18:43:32.627Z,80.67
2023-04-18T18:46:01.751Z,82.67
2023-04-18T18:48:32.339Z,92.67
2023-04-18T18:51:01.105Z,91.67
2023-04-18T18:53:29.982Z,87.67
2023-04-18T18:55:58.780Z,97.00
2023-04-18T18:58:27.996Z,94.67
2023-04-18T19:00:57.056Z,91.33
2023-04-18T19:03:27.162Z,94.67
2023-04-18T19:05:59.005Z,91.00
2023-04-18T19:08:27.563Z,81.00
2023-04-18T19:10:56.308Z,81.67
2023-04-18T19:13:25.256Z,86.33
2023-04-18T19:15:54.190Z,84.00
2023-04-18T19:18:23.019Z,85.00
2023-04-18T19:20:51.717Z,74.33
2023-04-18T19:23:20.422Z,73.67
2023-04-18T19:25:49.196Z,78.00
2023-04-18T19:28:18.529Z,70.33
2023-04-18T19:30:47.989Z,71.00
2023-04-18T19:33:17.452Z,63.33
2023-04-18T19:35:45.299Z,63.33
2023-04-18T19:38:14.375Z,60.67
2023-04-18T19:40:43.179Z,42.00
2023-04-18T19:43:12.496Z,38.50
2023-04-18T19:45:41.516Z,31.67
2023-04-18T19:48:10.318Z,35.00
2023-04-18T19:50:42.284Z,28.00
2023-04-18T19:53:11.562Z,26.67
2023-04-18T19:55:39.089Z,27.00
2023-04-18T19:58:07.220Z,17.33
2023-04-18T20:00:35.471Z,20.00
2023-04-18T20:03:02.455Z,28.00
2023-04-18T20:05:29.915Z,32.00
2023-04-18T20:07:58.616Z,31.00
2023-04-18T20:10:28.768Z,27.50
2023-04-18T20:12:59.080Z,25.50
2023-04-18T20:15:30.684Z,20.00
2023-04-18T20:18:03.633Z,54.00
2023-04-18T20:20:31.518Z,43.33
2023-04-18T20:22:59.860Z,23.00
2023-04-18T20:25:28.326Z,30.00
2023-04-18T20:27:56.290Z,27.00
2023-04-18T20:30:23.928Z,20.00
2023-04-18T20:32:56.761Z,27.00
2023-04-18T20:35:28.670Z,32.00
2023-04-18T20:37:56.676Z,20.33
2023-04-18T20:40:25.699Z,32.67
2023-04-18T20:42:57.709Z,15.00
2023-04-18T20:45:25.938Z,21.00
2023-04-18T20:47:55.241Z,19.50
2023-04-18T20:50:23.066Z,21.67
2023-04-18T20:52:50.122Z,28.50
2023-04-18T20:55:18.194Z,16.67
2023-04-18T20:57:47.420Z,15.60
2023-04-18T21:00:18.965Z,18.33
2023-04-18T21:02:48.521Z,12.60
2023-04-18T21:05:15.610Z,10.00
2023-04-18T21:07:45.851Z,12.00
2023-04-18T21:10:14.679Z,14.20
2023-04-18T21:12:43.133Z,6.50
2023-04-18T21:15:12.767Z,12.00
2023-04-18T21:17:39.730Z,11.50
2023-04-18T21:20:09.889Z,8.00
2023-04-18T21:22:37.922Z,16.00
2023-04-18T21:25:05.214Z,11.00
2023-04-18T21:27:34.536Z,8.50
2023-04-18T21:30:05.749Z,12.80
2023-04-18T21:32:32.792Z,10.50
2023-04-18T21:35:01.772Z,9.00
2023-04-18T21:37:30.415Z,9.80
2023-04-18T21:40:04.135Z,11.00
2023-04-18T21:42:31.848Z,10.00
2023-04-18T21:45:01.730Z,6.50
2023-04-18T21:47:28.676Z,7.00
2023-04-18T21:49:55.967Z,6.50
2023-04-18T21:52:22.903Z,7.00
2023-04-18T21:54:50.693Z,11.25
2023-04-18T21:57:17.590Z,9.00
2023-04-18T21:59:44.523Z,10.50
2023-04-18T22:02:11.719Z,12.00
2023-04-18T22:04:42.816Z,9.50
2023-04-18T22:07:11.600Z,11.50
2023-04-18T22:09:38.697Z,12.00
2023-04-18T22:12:08.695Z,11.00
2023-04-18T22:14:37.640Z,11.25
2023-04-18T22:17:04.931Z,14.00
2023-04-18T22:19:31.962Z,11.00
2023-04-18T22:22:02.280Z,12.71
2023-04-18T22:24:29.913Z,7.50
2023-04-18T22:26:56.707Z,2.00
2023-04-18T22:29:25.580Z,11.40
2023-04-18T22:31:54.494Z,13.20
2023-04-18T22:34:21.463Z,8.00
2023-04-18T22:36:49.238Z,7.75
2023-04-18T22:39:16.087Z,8.00
2023-04-18T22:41:44.329Z,9.00
2023-04-18T22:44:12.049Z,10.75
2023-04-18T22:46:39.906Z,7.25
2023-04-18T22:49:09.838Z,8.00
2023-04-18T22:51:38.277Z,8.25
2023-04-18T22:54:06.049Z,6.00
2023-04-18T22:56:33.710Z,6.50
2023-04-18T22:59:00.653Z,5.50
2023-04-18T23:01:28.422Z,6.50
2023-04-18T23:03:55.551Z,6.00
2023-04-18T23:06:22.617Z,10.00
2023-04-18T23:08:49.813Z,9.00
2023-04-18T23:11:17.796Z,6.75
2023-04-18T23:13:44.559Z,7.00
2023-04-18T23:16:12.402Z,6.00
2023-04-18T23:18:39.308Z,8.50
2023-04-18T23:21:07.528Z,10.00
2023-04-18T23:23:36.148Z,8.80
2023-04-18T23:26:03.329Z,8.67
2023-04-18T23:28:31.133Z,7.00
2023-04-18T23:30:58.912Z,10.00
2023-04-18T23:33:30.081Z,6.14
2023-04-18T23:35:57.083Z,10.50
2023-04-18T23:38:23.911Z,8.50
2023-04-18T23:40:51.600Z,8.50
2023-04-18T23:43:19.290Z,7.25
2023-04-18T23:45:46.915Z,7.25
2023-04-18T23:48:13.670Z,9.00
2023-04-18T23:50:52.216Z,8.50
2023-04-18T23:53:20.406Z,8.00
2023-04-18T23:55:49.525Z,11.00
2023-04-18T23:58:17.801Z,9.00
